sensor_id;sensor_type;location;lat;lon;timestamp;P1;durP1;ratioP1;P2;durP2;ratioP2
20369;SDS011;10344;47.592;9.600;2024-03-22T00:00:43;3.35;;;3.05;;
20369;SDS011;10344;47.592;9.600;2024-03-22T00:03:12;4.47;;;3.13;;
20369;SDS011;10344;47.592;9.600;2024-03-22T00:05:37;3.67;;;3.10;;
20369;SDS011;10344;47.592;9.600;2024-03-22T00:08:05;4.47;;;3.47;;
20369;SDS011;10344;47.592;9.600;2024-03-22T00:10:31;5.07;;;3.50;;
20369;SDS011;10344;47.592;9.600;2024-03-22T00:12:59;3.30;;;3.00;;
20369;SDS011;10344;47.592;9.600;2024-03-22T00:15:27;4.10;;;3.10;;
20369;SDS011;10344;47.592;9.600;2024-03-22T00:17:52;4.38;;;3.35;;
20369;SDS011;10344;47.592;9.600;2024-03-22T00:20:18;4.65;;;3.25;;
20369;SDS011;10344;47.592;9.600;2024-03-22T00:22:45;4.10;;;3.20;;
20369;SDS011;10344;47.592;9.600;2024-03-22T00:25:11;3.00;;;2.70;;
20369;SDS011;10344;47.592;9.600;2024-03-22T00:27:37;4.17;;;3.00;;
20369;SDS011;10344;47.592;9.600;2024-03-22T00:30:02;4.82;;;3.40;;
20369;SDS011;10344;47.592;9.600;2024-03-22T00:32:29;4.13;;;3.60;;
20369;SDS011;10344;47.592;9.600;2024-03-22T00:34:55;3.70;;;3.40;;
20369;SDS011;10344;47.592;9.600;2024-03-22T00:37:20;3.63;;;3.30;;
20369;SDS011;10344;47.592;9.600;2024-03-22T00:39:46;3.87;;;3.27;;
20369;SDS011;10344;47.592;9.600;2024-03-22T00:42:13;3.50;;;3.20;;
20369;SDS011;10344;47.592;9.600;2024-03-22T00:44:39;3.47;;;3.17;;
20369;SDS011;10344;47.592;9.600;2024-03-22T00:47:05;4.22;;;3.40;;
20369;SDS011;10344;47.592;9.600;2024-03-22T00:49:31;3.50;;;3.20;;
20369;SDS011;10344;47.592;9.600;2024-03-22T00:51:56;3.67;;;3.10;;
20369;SDS011;10344;47.592;9.600;2024-03-22T00:54:22;3.35;;;2.90;;
20369;SDS011;10344;47.592;9.600;2024-03-22T00:56:50;4.30;;;3.28;;
20369;SDS011;10344;47.592;9.600;2024-03-22T00:59:16;4.05;;;3.13;;
20369;SDS011;10344;47.592;9.600;2024-03-22T01:01:41;2.93;;;2.70;;
20369;SDS011;10344;47.592;9.600;2024-03-22T01:04:07;4.17;;;3.00;;
20369;SDS011;10344;47.592;9.600;2024-03-22T01:06:34;3.27;;;2.90;;
20369;SDS011;10344;47.592;9.600;2024-03-22T01:09:00;4.75;;;3.42;;
20369;SDS011;10344;47.592;9.600;2024-03-22T01:11:25;3.90;;;3.33;;
20369;SDS011;10344;47.592;9.600;2024-03-22T01:13:51;3.47;;;3.03;;
20369;SDS011;10344;47.592;9.600;2024-03-22T01:16:16;3.80;;;3.20;;
20369;SDS011;10344;47.592;9.600;2024-03-22T01:18:42;3.50;;;3.20;;
20369;SDS011;10344;47.592;9.600;2024-03-22T01:21:08;4.32;;;3.22;;
20369;SDS011;10344;47.592;9.600;2024-03-22T01:23:33;3.90;;;3.43;;
20369;SDS011;10344;47.592;9.600;2024-03-22T01:26:01;4.13;;;3.20;;
20369;SDS011;10344;47.592;9.600;2024-03-22T01:28:27;3.50;;;3.20;;
20369;SDS011;10344;47.592;9.600;2024-03-22T01:30:52;3.38;;;3.08;;
20369;SDS011;10344;47.592;9.600;2024-03-22T01:33:18;3.17;;;2.63;;
20369;SDS011;10344;47.592;9.600;2024-03-22T01:35:43;4.00;;;3.07;;
20369;SDS011;10344;47.592;9.600;2024-03-22T01:38:09;3.80;;;2.80;;
20369;SDS011;10344;47.592;9.600;2024-03-22T01:40:35;2.90;;;2.60;;
20369;SDS011;10344;47.592;9.600;2024-03-22T01:43:00;3.30;;;3.00;;
20369;SDS011;10344;47.592;9.600;2024-03-22T01:45:31;3.80;;;3.00;;
20369;SDS011;10344;47.592;9.600;2024-03-22T01:47:57;5.00;;;3.22;;
20369;SDS011;10344;47.592;9.600;2024-03-22T01:50:24;4.20;;;2.80;;
20369;SDS011;10344;47.592;9.600;2024-03-22T01:52:50;4.03;;;3.40;;
20369;SDS011;10344;47.592;9.600;2024-03-22T01:55:17;3.55;;;2.92;;
20369;SDS011;10344;47.592;9.600;2024-03-22T01:57:43;3.80;;;3.10;;
20369;SDS011;10344;47.592;9.600;2024-03-22T02:00:09;3.35;;;3.05;;
20369;SDS011;10344;47.592;9.600;2024-03-22T02:02:35;3.90;;;3.30;;
20369;SDS011;10344;47.592;9.600;2024-03-22T02:05:19;3.75;;;3.00;;
20369;SDS011;10344;47.592;9.600;2024-03-22T02:07:45;3.43;;;3.13;;
20369;SDS011;10344;47.592;9.600;2024-03-22T02:10:13;3.40;;;3.00;;
20369;SDS011;10344;47.592;9.600;2024-03-22T02:12:40;3.08;;;2.78;;
20369;SDS011;10344;47.592;9.600;2024-03-22T02:15:08;4.75;;;3.00;;
20369;SDS011;10344;47.592;9.600;2024-03-22T02:17:34;4.30;;;3.10;;
20369;SDS011;10344;47.592;9.600;2024-03-22T02:20:03;3.80;;;3.00;;
20369;SDS011;10344;47.592;9.600;2024-03-22T02:22:30;4.05;;;3.22;;
20369;SDS011;10344;47.592;9.600;2024-03-22T02:24:55;5.30;;;3.85;;
20369;SDS011;10344;47.592;9.600;2024-03-22T02:27:21;4.45;;;3.70;;
20369;SDS011;10344;47.592;9.600;2024-03-22T02:29:47;4.10;;;3.50;;
20369;SDS011;10344;47.592;9.600;2024-03-22T02:32:12;4.20;;;3.20;;
20369;SDS011;10344;47.592;9.600;2024-03-22T02:34:38;3.87;;;3.23;;
20369;SDS011;10344;47.592;9.600;2024-03-22T02:37:04;4.13;;;3.10;;
20369;SDS011;10344;47.592;9.600;2024-03-22T02:39:29;4.13;;;3.42;;
20369;SDS011;10344;47.592;9.600;2024-03-22T02:41:55;4.10;;;2.90;;
20369;SDS011;10344;47.592;9.600;2024-03-22T02:44:21;4.00;;;3.08;;
20369;SDS011;10344;47.592;9.600;2024-03-22T02:46:49;3.85;;;3.03;;
20369;SDS011;10344;47.592;9.600;2024-03-22T02:49:15;4.13;;;2.90;;
20369;SDS011;10344;47.592;9.600;2024-03-22T02:51:40;3.00;;;2.70;;
20369;SDS011;10344;47.592;9.600;2024-03-22T02:54:06;4.17;;;3.10;;
20369;SDS011;10344;47.592;9.600;2024-03-22T02:56:34;3.45;;;3.15;;
20369;SDS011;10344;47.592;9.600;2024-03-22T02:58:59;4.90;;;3.37;;
20369;SDS011;10344;47.592;9.600;2024-03-22T03:01:25;4.13;;;3.33;;
20369;SDS011;10344;47.592;9.600;2024-03-22T03:03:50;4.47;;;2.95;;
20369;SDS011;10344;47.592;9.600;2024-03-22T03:06:16;3.50;;;3.07;;
20369;SDS011;10344;47.592;9.600;2024-03-22T03:08:44;4.35;;;3.28;;
20369;SDS011;10344;47.592;9.600;2024-03-22T03:11:10;3.67;;;3.20;;
20369;SDS011;10344;47.592;9.600;2024-03-22T03:13:36;3.50;;;3.15;;
20369;SDS011;10344;47.592;9.600;2024-03-22T03:16:02;3.47;;;3.17;;
20369;SDS011;10344;47.592;9.600;2024-03-22T03:18:28;3.30;;;3.00;;
20369;SDS011;10344;47.592;9.600;2024-03-22T03:20:56;3.40;;;3.10;;
20369;SDS011;10344;47.592;9.600;2024-03-22T03:23:21;3.92;;;3.00;;
20369;SDS011;10344;47.592;9.600;2024-03-22T03:25:49;3.27;;;2.97;;
20369;SDS011;10344;47.592;9.600;2024-03-22T03:28:15;3.38;;;3.08;;
20369;SDS011;10344;47.592;9.600;2024-03-22T03:30:40;4.75;;;3.28;;
20369;SDS011;10344;47.592;9.600;2024-03-22T03:33:08;3.47;;;3.17;;
20369;SDS011;10344;47.592;9.600;2024-03-22T03:35:34;3.65;;;3.17;;
20369;SDS011;10344;47.592;9.600;2024-03-22T03:37:59;3.85;;;3.30;;
20369;SDS011;10344;47.592;9.600;2024-03-22T03:40:25;3.10;;;2.80;;
20369;SDS011;10344;47.592;9.600;2024-03-22T03:42:52;3.90;;;3.50;;
20369;SDS011;10344;47.592;9.600;2024-03-22T03:45:18;4.50;;;3.42;;
20369;SDS011;10344;47.592;9.600;2024-03-22T03:47:43;3.53;;;3.00;;
20369;SDS011;10344;47.592;9.600;2024-03-22T03:50:09;3.80;;;3.30;;
20369;SDS011;10344;47.592;9.600;2024-03-22T03:52:35;3.15;;;2.85;;
20369;SDS011;10344;47.592;9.600;2024-03-22T03:55:00;3.13;;;2.83;;
20369;SDS011;10344;47.592;9.600;2024-03-22T03:57:26;3.92;;;3.25;;
20369;SDS011;10344;47.592;9.600;2024-03-22T03:59:54;3.63;;;3.28;;
20369;SDS011;10344;47.592;9.600;2024-03-22T04:02:19;3.83;;;2.90;;
20369;SDS011;10344;47.592;9.600;2024-03-22T04:04:46;3.15;;;2.85;;
20369;SDS011;10344;47.592;9.600;2024-03-22T04:07:11;3.43;;;3.10;;
20369;SDS011;10344;47.592;9.600;2024-03-22T04:09:37;3.17;;;2.88;;
20369;SDS011;10344;47.592;9.600;2024-03-22T04:12:07;3.53;;;3.17;;
20369;SDS011;10344;47.592;9.600;2024-03-22T04:14:32;3.90;;;3.10;;
20369;SDS011;10344;47.592;9.600;2024-03-22T04:17:03;4.25;;;3.00;;
20369;SDS011;10344;47.592;9.600;2024-03-22T04:19:28;3.28;;;2.85;;
20369;SDS011;10344;47.592;9.600;2024-03-22T04:21:54;4.47;;;3.00;;
20369;SDS011;10344;47.592;9.600;2024-03-22T04:24:20;3.47;;;2.70;;
20369;SDS011;10344;47.592;9.600;2024-03-22T04:26:48;3.38;;;3.08;;
20369;SDS011;10344;47.592;9.600;2024-03-22T04:29:13;4.43;;;2.93;;
20369;SDS011;10344;47.592;9.600;2024-03-22T04:31:39;4.60;;;2.80;;
20369;SDS011;10344;47.592;9.600;2024-03-22T04:34:04;3.95;;;3.30;;
20369;SDS011;10344;47.592;9.600;2024-03-22T04:36:33;3.55;;;2.90;;
20369;SDS011;10344;47.592;9.600;2024-03-22T04:38:59;4.38;;;3.10;;
20369;SDS011;10344;47.592;9.600;2024-03-22T04:41:24;3.87;;;3.30;;
20369;SDS011;10344;47.592;9.600;2024-03-22T04:43:50;4.53;;;3.42;;
20369;SDS011;10344;47.592;9.600;2024-03-22T04:46:16;5.90;;;3.30;;
20369;SDS011;10344;47.592;9.600;2024-03-22T04:48:41;5.00;;;3.20;;
20369;SDS011;10344;47.592;9.600;2024-03-22T04:51:07;4.37;;;3.40;;
20369;SDS011;10344;47.592;9.600;2024-03-22T04:53:35;4.10;;;3.40;;
20369;SDS011;10344;47.592;9.600;2024-03-22T04:56:00;7.37;;;4.47;;
20369;SDS011;10344;47.592;9.600;2024-03-22T04:58:27;5.07;;;3.92;;
20369;SDS011;10344;47.592;9.600;2024-03-22T05:00:57;4.75;;;3.88;;
20369;SDS011;10344;47.592;9.600;2024-03-22T05:03:25;4.93;;;4.13;;
20369;SDS011;10344;47.592;9.600;2024-03-22T05:05:51;4.93;;;4.00;;
20369;SDS011;10344;47.592;9.600;2024-03-22T05:08:16;5.03;;;4.20;;
20369;SDS011;10344;47.592;9.600;2024-03-22T05:10:42;5.80;;;4.27;;
20369;SDS011;10344;47.592;9.600;2024-03-22T05:13:08;5.45;;;4.03;;
20369;SDS011;10344;47.592;9.600;2024-03-22T05:15:34;4.60;;;4.10;;
20369;SDS011;10344;47.592;9.600;2024-03-22T05:17:59;5.45;;;4.28;;
20369;SDS011;10344;47.592;9.600;2024-03-22T05:20:25;4.88;;;4.10;;
20369;SDS011;10344;47.592;9.600;2024-03-22T05:22:51;4.53;;;4.13;;
20369;SDS011;10344;47.592;9.600;2024-03-22T05:25:17;4.80;;;4.30;;
20369;SDS011;10344;47.592;9.600;2024-03-22T05:27:43;4.00;;;3.60;;
20369;SDS011;10344;47.592;9.600;2024-03-22T05:30:10;4.07;;;3.58;;
20369;SDS011;10344;47.592;9.600;2024-03-22T05:32:36;5.50;;;3.95;;
20369;SDS011;10344;47.592;9.600;2024-03-22T05:35:02;4.30;;;3.90;;
20369;SDS011;10344;47.592;9.600;2024-03-22T05:37:32;4.78;;;3.75;;
20369;SDS011;10344;47.592;9.600;2024-03-22T05:39:59;4.80;;;3.88;;
20369;SDS011;10344;47.592;9.600;2024-03-22T05:42:25;4.40;;;3.80;;
20369;SDS011;10344;47.592;9.600;2024-03-22T05:44:53;4.00;;;3.60;;
20369;SDS011;10344;47.592;9.600;2024-03-22T05:47:20;4.80;;;3.80;;
20369;SDS011;10344;47.592;9.600;2024-03-22T05:49:47;3.92;;;3.55;;
20369;SDS011;10344;47.592;9.600;2024-03-22T05:52:12;5.27;;;3.73;;
20369;SDS011;10344;47.592;9.600;2024-03-22T05:54:38;3.55;;;3.25;;
20369;SDS011;10344;47.592;9.600;2024-03-22T05:57:04;4.55;;;3.60;;
20369;SDS011;10344;47.592;9.600;2024-03-22T05:59:32;4.13;;;3.25;;
20369;SDS011;10344;47.592;9.600;2024-03-22T06:01:58;4.07;;;3.30;;
20369;SDS011;10344;47.592;9.600;2024-03-22T06:04:24;3.40;;;3.10;;
20369;SDS011;10344;47.592;9.600;2024-03-22T06:06:52;3.70;;;3.40;;
20369;SDS011;10344;47.592;9.600;2024-03-22T06:09:18;3.50;;;3.20;;
20369;SDS011;10344;47.592;9.600;2024-03-22T06:11:59;3.92;;;3.20;;
20369;SDS011;10344;47.592;9.600;2024-03-22T06:14:25;3.10;;;2.80;;
20369;SDS011;10344;47.592;9.600;2024-03-22T06:16:51;3.10;;;2.80;;
20369;SDS011;10344;47.592;9.600;2024-03-22T06:19:16;5.43;;;3.47;;
20369;SDS011;10344;47.592;9.600;2024-03-22T06:21:44;4.20;;;3.20;;
20369;SDS011;10344;47.592;9.600;2024-03-22T06:24:10;4.13;;;3.10;;
20369;SDS011;10344;47.592;9.600;2024-03-22T06:26:35;3.97;;;2.97;;
20369;SDS011;10344;47.592;9.600;2024-03-22T06:29:04;3.80;;;3.00;;
20369;SDS011;10344;47.592;9.600;2024-03-22T06:31:29;5.18;;;2.88;;
20369;SDS011;10344;47.592;9.600;2024-03-22T06:33:55;2.90;;;2.60;;
20369;SDS011;10344;47.592;9.600;2024-03-22T06:36:26;3.33;;;2.60;;
20369;SDS011;10344;47.592;9.600;2024-03-22T06:38:58;3.30;;;2.90;;
20369;SDS011;10344;47.592;9.600;2024-03-22T06:41:24;3.78;;;2.78;;
20369;SDS011;10344;47.592;9.600;2024-03-22T06:43:53;3.55;;;2.97;;
20369;SDS011;10344;47.592;9.600;2024-03-22T06:46:19;3.30;;;2.63;;
20369;SDS011;10344;47.592;9.600;2024-03-22T06:48:45;3.58;;;2.55;;
20369;SDS011;10344;47.592;9.600;2024-03-22T06:51:13;2.75;;;2.42;;
20369;SDS011;10344;47.592;9.600;2024-03-22T06:53:38;4.07;;;2.33;;
20369;SDS011;10344;47.592;9.600;2024-03-22T06:56:04;3.17;;;2.53;;
20369;SDS011;10344;47.592;9.600;2024-03-22T06:58:30;2.42;;;2.22;;
20369;SDS011;10344;47.592;9.600;2024-03-22T07:00:56;3.45;;;2.55;;
20369;SDS011;10344;47.592;9.600;2024-03-22T07:03:23;3.28;;;2.22;;
20369;SDS011;10344;47.592;9.600;2024-03-22T07:05:49;3.23;;;2.20;;
20369;SDS011;10344;47.592;9.600;2024-03-22T07:08:15;2.58;;;2.38;;
20369;SDS011;10344;47.592;9.600;2024-03-22T07:10:40;3.10;;;2.35;;
20369;SDS011;10344;47.592;9.600;2024-03-22T07:13:07;2.55;;;2.17;;
20369;SDS011;10344;47.592;9.600;2024-03-22T07:15:32;2.25;;;1.98;;
20369;SDS011;10344;47.592;9.600;2024-03-22T07:17:58;2.60;;;2.05;;
20369;SDS011;10344;47.592;9.600;2024-03-22T07:20:25;3.42;;;2.00;;
20369;SDS011;10344;47.592;9.600;2024-03-22T07:22:51;3.38;;;1.90;;
20369;SDS011;10344;47.592;9.600;2024-03-22T07:25:17;2.72;;;1.80;;
20369;SDS011;10344;47.592;9.600;2024-03-22T07:27:42;5.72;;;2.05;;
20369;SDS011;10344;47.592;9.600;2024-03-22T07:30:08;4.50;;;1.90;;
20369;SDS011;10344;47.592;9.600;2024-03-22T07:32:36;4.88;;;2.20;;
20369;SDS011;10344;47.592;9.600;2024-03-22T07:35:02;2.92;;;1.80;;
20369;SDS011;10344;47.592;9.600;2024-03-22T07:37:28;3.38;;;1.80;;
20369;SDS011;10344;47.592;9.600;2024-03-22T07:39:54;2.65;;;1.90;;
20369;SDS011;10344;47.592;9.600;2024-03-22T07:42:19;2.77;;;1.73;;
20369;SDS011;10344;47.592;9.600;2024-03-22T07:44:46;2.88;;;1.90;;
20369;SDS011;10344;47.592;9.600;2024-03-22T07:47:12;2.00;;;1.60;;
20369;SDS011;10344;47.592;9.600;2024-03-22T07:49:38;3.10;;;1.90;;
20369;SDS011;10344;47.592;9.600;2024-03-22T07:52:03;2.30;;;2.00;;
20369;SDS011;10344;47.592;9.600;2024-03-22T07:54:31;4.35;;;2.35;;
20369;SDS011;10344;47.592;9.600;2024-03-22T07:56:59;4.20;;;2.38;;
20369;SDS011;10344;47.592;9.600;2024-03-22T07:59:25;3.33;;;2.35;;
20369;SDS011;10344;47.592;9.600;2024-03-22T08:01:50;3.10;;;2.37;;
20369;SDS011;10344;47.592;9.600;2024-03-22T08:04:16;3.07;;;2.47;;
20369;SDS011;10344;47.592;9.600;2024-03-22T08:06:42;2.53;;;2.15;;
20369;SDS011;10344;47.592;9.600;2024-03-22T08:09:07;2.57;;;2.33;;
20369;SDS011;10344;47.592;9.600;2024-03-22T08:11:33;2.70;;;2.50;;
20369;SDS011;10344;47.592;9.600;2024-03-22T08:13:59;3.80;;;2.40;;
20369;SDS011;10344;47.592;9.600;2024-03-22T08:16:29;5.63;;;2.40;;
20369;SDS011;10344;47.592;9.600;2024-03-22T08:18:55;3.40;;;2.60;;
20369;SDS011;10344;47.592;9.600;2024-03-22T08:21:23;3.27;;;2.60;;
20369;SDS011;10344;47.592;9.600;2024-03-22T08:23:50;3.15;;;2.58;;
20369;SDS011;10344;47.592;9.600;2024-03-22T08:26:16;3.37;;;2.40;;
20369;SDS011;10344;47.592;9.600;2024-03-22T08:28:42;2.42;;;2.20;;
20369;SDS011;10344;47.592;9.600;2024-03-22T08:31:09;2.88;;;2.50;;
20369;SDS011;10344;47.592;9.600;2024-03-22T08:33:35;3.55;;;2.33;;
20369;SDS011;10344;47.592;9.600;2024-03-22T08:36:00;4.73;;;2.70;;
20369;SDS011;10344;47.592;9.600;2024-03-22T08:38:26;3.43;;;2.33;;
20369;SDS011;10344;47.592;9.600;2024-03-22T08:40:52;3.17;;;2.50;;
20369;SDS011;10344;47.592;9.600;2024-03-22T08:43:17;4.45;;;2.70;;
20369;SDS011;10344;47.592;9.600;2024-03-22T08:45:43;4.07;;;2.47;;
20369;SDS011;10344;47.592;9.600;2024-03-22T08:48:11;2.67;;;2.35;;
20369;SDS011;10344;47.592;9.600;2024-03-22T08:50:37;3.13;;;2.40;;
20369;SDS011;10344;47.592;9.600;2024-03-22T08:53:06;3.20;;;2.60;;
20369;SDS011;10344;47.592;9.600;2024-03-22T08:55:32;3.53;;;2.80;;
20369;SDS011;10344;47.592;9.600;2024-03-22T08:58:00;3.95;;;2.65;;
20369;SDS011;10344;47.592;9.600;2024-03-22T09:00:26;3.00;;;2.50;;
20369;SDS011;10344;47.592;9.600;2024-03-22T09:02:52;3.30;;;2.83;;
20369;SDS011;10344;47.592;9.600;2024-03-22T09:05:20;5.73;;;3.03;;
20369;SDS011;10344;47.592;9.600;2024-03-22T09:07:45;4.50;;;2.87;;
20369;SDS011;10344;47.592;9.600;2024-03-22T09:10:11;3.70;;;3.10;;
20369;SDS011;10344;47.592;9.600;2024-03-22T09:12:36;3.58;;;2.88;;
20369;SDS011;10344;47.592;9.600;2024-03-22T09:15:02;3.50;;;2.85;;
20369;SDS011;10344;47.592;9.600;2024-03-22T09:17:28;4.45;;;3.22;;
20369;SDS011;10344;47.592;9.600;2024-03-22T09:19:54;4.82;;;3.13;;
20369;SDS011;10344;47.592;9.600;2024-03-22T09:22:20;4.40;;;3.00;;
20369;SDS011;10344;47.592;9.600;2024-03-22T09:24:46;3.00;;;2.70;;
20369;SDS011;10344;47.592;9.600;2024-03-22T09:27:11;3.72;;;2.70;;
20369;SDS011;10344;47.592;9.600;2024-03-22T09:29:39;3.73;;;2.63;;
20369;SDS011;10344;47.592;9.600;2024-03-22T09:32:05;3.55;;;2.80;;
20369;SDS011;10344;47.592;9.600;2024-03-22T09:34:30;3.58;;;2.83;;
20369;SDS011;10344;47.592;9.600;2024-03-22T09:36:56;3.50;;;3.03;;
20369;SDS011;10344;47.592;9.600;2024-03-22T09:39:25;3.72;;;2.70;;
20369;SDS011;10344;47.592;9.600;2024-03-22T09:41:52;4.43;;;2.93;;
20369;SDS011;10344;47.592;9.600;2024-03-22T09:44:19;3.58;;;2.80;;
20369;SDS011;10344;47.592;9.600;2024-03-22T09:46:46;4.43;;;2.80;;
20369;SDS011;10344;47.592;9.600;2024-03-22T09:49:15;3.28;;;2.78;;
20369;SDS011;10344;47.592;9.600;2024-03-22T09:51:43;4.13;;;3.33;;
20369;SDS011;10344;47.592;9.600;2024-03-22T09:54:10;3.65;;;3.10;;
20369;SDS011;10344;47.592;9.600;2024-03-22T09:56:37;3.80;;;3.03;;
20369;SDS011;10344;47.592;9.600;2024-03-22T09:59:05;4.55;;;3.00;;
20369;SDS011;10344;47.592;9.600;2024-03-22T10:01:31;6.30;;;3.10;;
20369;SDS011;10344;47.592;9.600;2024-03-22T10:04:01;4.93;;;3.40;;
20369;SDS011;10344;47.592;9.600;2024-03-22T10:06:28;4.70;;;3.35;;
20369;SDS011;10344;47.592;9.600;2024-03-22T10:08:57;3.38;;;3.00;;
20369;SDS011;10344;47.592;9.600;2024-03-22T10:11:25;4.30;;;3.25;;
20369;SDS011;10344;47.592;9.600;2024-03-22T10:13:54;4.88;;;3.15;;
20369;SDS011;10344;47.592;9.600;2024-03-22T10:16:22;4.53;;;3.45;;
20369;SDS011;10344;47.592;9.600;2024-03-22T10:18:47;4.83;;;3.50;;
20369;SDS011;10344;47.592;9.600;2024-03-22T10:21:16;4.20;;;3.40;;
20369;SDS011;10344;47.592;9.600;2024-03-22T10:23:46;5.15;;;3.60;;
20369;SDS011;10344;47.592;9.600;2024-03-22T10:26:13;4.15;;;3.55;;
20369;SDS011;10344;47.592;9.600;2024-03-22T10:28:46;5.10;;;4.10;;
20369;SDS011;10344;47.592;9.600;2024-03-22T10:31:12;6.18;;;3.95;;
20369;SDS011;10344;47.592;9.600;2024-03-22T10:33:39;4.45;;;3.60;;
20369;SDS011;10344;47.592;9.600;2024-03-22T10:36:06;5.33;;;3.73;;
20369;SDS011;10344;47.592;9.600;2024-03-22T10:38:36;7.10;;;3.80;;
20369;SDS011;10344;47.592;9.600;2024-03-22T10:41:06;4.82;;;3.60;;
20369;SDS011;10344;47.592;9.600;2024-03-22T10:43:34;3.80;;;3.45;;
20369;SDS011;10344;47.592;9.600;2024-03-22T10:46:01;4.70;;;3.70;;
20369;SDS011;10344;47.592;9.600;2024-03-22T10:48:31;4.38;;;3.90;;
20369;SDS011;10344;47.592;9.600;2024-03-22T10:51:00;5.13;;;3.70;;
20369;SDS011;10344;47.592;9.600;2024-03-22T10:53:26;4.68;;;4.00;;
20369;SDS011;10344;47.592;9.600;2024-03-22T10:55:56;5.68;;;4.07;;
20369;SDS011;10344;47.592;9.600;2024-03-22T10:58:26;5.25;;;3.80;;
20369;SDS011;10344;47.592;9.600;2024-03-22T11:00:52;4.13;;;3.72;;
20369;SDS011;10344;47.592;9.600;2024-03-22T11:03:22;5.97;;;3.67;;
20369;SDS011;10344;47.592;9.600;2024-03-22T11:05:50;4.05;;;3.65;;
20369;SDS011;10344;47.592;9.600;2024-03-22T11:08:28;4.10;;;3.70;;
20369;SDS011;10344;47.592;9.600;2024-03-22T11:10:56;5.35;;;3.70;;
20369;SDS011;10344;47.592;9.600;2024-03-22T11:13:22;4.03;;;3.53;;
20369;SDS011;10344;47.592;9.600;2024-03-22T11:15:51;4.80;;;3.28;;
20369;SDS011;10344;47.592;9.600;2024-03-22T11:18:17;4.32;;;3.40;;
20369;SDS011;10344;47.592;9.600;2024-03-22T11:20:43;4.28;;;3.00;;
20369;SDS011;10344;47.592;9.600;2024-03-22T11:23:10;5.72;;;3.25;;
20369;SDS011;10344;47.592;9.600;2024-03-22T11:25:38;3.57;;;3.10;;
20369;SDS011;10344;47.592;9.600;2024-03-22T11:28:03;5.50;;;3.20;;
20369;SDS011;10344;47.592;9.600;2024-03-22T11:30:30;4.03;;;2.95;;
20369;SDS011;10344;47.592;9.600;2024-03-22T11:33:00;4.40;;;3.00;;
20369;SDS011;10344;47.592;9.600;2024-03-22T11:35:26;3.60;;;2.88;;
20369;SDS011;10344;47.592;9.600;2024-03-22T11:37:57;2.78;;;2.53;;
20369;SDS011;10344;47.592;9.600;2024-03-22T11:40:23;2.97;;;2.67;;
20369;SDS011;10344;47.592;9.600;2024-03-22T11:42:55;3.88;;;2.78;;
20369;SDS011;10344;47.592;9.600;2024-03-22T11:45:22;4.00;;;2.80;;
20369;SDS011;10344;47.592;9.600;2024-03-22T11:47:48;3.90;;;2.88;;
20369;SDS011;10344;47.592;9.600;2024-03-22T11:50:14;4.10;;;2.60;;
20369;SDS011;10344;47.592;9.600;2024-03-22T11:52:40;3.35;;;2.63;;
20369;SDS011;10344;47.592;9.600;2024-03-22T11:55:12;3.17;;;2.67;;
20369;SDS011;10344;47.592;9.600;2024-03-22T11:57:39;2.70;;;2.50;;
20369;SDS011;10344;47.592;9.600;2024-03-22T12:00:05;2.80;;;2.42;;
20369;SDS011;10344;47.592;9.600;2024-03-22T12:02:37;4.32;;;2.75;;
20369;SDS011;10344;47.592;9.600;2024-03-22T12:05:04;4.00;;;2.97;;
20369;SDS011;10344;47.592;9.600;2024-03-22T12:07:30;3.97;;;2.90;;
20369;SDS011;10344;47.592;9.600;2024-03-22T12:09:58;4.80;;;3.13;;
20369;SDS011;10344;47.592;9.600;2024-03-22T12:12:24;3.60;;;3.00;;
20369;SDS011;10344;47.592;9.600;2024-03-22T12:14:50;3.53;;;3.20;;
20369;SDS011;10344;47.592;9.600;2024-03-22T12:17:16;5.65;;;3.30;;
20369;SDS011;10344;47.592;9.600;2024-03-22T12:19:42;4.20;;;3.42;;
20369;SDS011;10344;47.592;9.600;2024-03-22T12:22:08;5.72;;;3.40;;
20369;SDS011;10344;47.592;9.600;2024-03-22T12:24:33;3.50;;;3.15;;
20369;SDS011;10344;47.592;9.600;2024-03-22T12:26:59;3.50;;;3.17;;
20369;SDS011;10344;47.592;9.600;2024-03-22T12:29:25;3.77;;;3.30;;
20369;SDS011;10344;47.592;9.600;2024-03-22T12:31:50;4.13;;;3.30;;
20369;SDS011;10344;47.592;9.600;2024-03-22T12:34:18;3.95;;;3.13;;
20369;SDS011;10344;47.592;9.600;2024-03-22T12:36:46;3.97;;;3.58;;
20369;SDS011;10344;47.592;9.600;2024-03-22T12:39:12;4.43;;;3.80;;
20369;SDS011;10344;47.592;9.600;2024-03-22T12:41:40;3.80;;;3.40;;
20369;SDS011;10344;47.592;9.600;2024-03-22T12:44:05;3.90;;;3.50;;
20369;SDS011;10344;47.592;9.600;2024-03-22T12:46:31;4.20;;;3.80;;
20369;SDS011;10344;47.592;9.600;2024-03-22T12:48:56;4.60;;;3.20;;
20369;SDS011;10344;47.592;9.600;2024-03-22T12:51:22;4.37;;;3.50;;
20369;SDS011;10344;47.592;9.600;2024-03-22T12:53:49;3.88;;;3.40;;
20369;SDS011;10344;47.592;9.600;2024-03-22T12:56:14;4.25;;;3.60;;
20369;SDS011;10344;47.592;9.600;2024-03-22T12:58:40;3.40;;;3.03;;
20369;SDS011;10344;47.592;9.600;2024-03-22T13:01:08;4.10;;;3.40;;
20369;SDS011;10344;47.592;9.600;2024-03-22T13:03:36;3.58;;;3.10;;
20369;SDS011;10344;47.592;9.600;2024-03-22T13:06:05;4.10;;;3.47;;
20369;SDS011;10344;47.592;9.600;2024-03-22T13:08:31;4.43;;;3.80;;
20369;SDS011;10344;47.592;9.600;2024-03-22T13:10:57;4.18;;;3.58;;
20369;SDS011;10344;47.592;9.600;2024-03-22T13:13:22;3.90;;;3.50;;
20369;SDS011;10344;47.592;9.600;2024-03-22T13:15:48;3.63;;;3.30;;
20369;SDS011;10344;47.592;9.600;2024-03-22T13:18:14;3.40;;;3.00;;
20369;SDS011;10344;47.592;9.600;2024-03-22T13:20:40;3.20;;;2.90;;
20369;SDS011;10344;47.592;9.600;2024-03-22T13:23:08;4.07;;;3.17;;
20369;SDS011;10344;47.592;9.600;2024-03-22T13:25:34;3.40;;;2.85;;
20369;SDS011;10344;47.592;9.600;2024-03-22T13:28:02;3.20;;;2.80;;
20369;SDS011;10344;47.592;9.600;2024-03-22T13:30:30;3.95;;;2.50;;
20369;SDS011;10344;47.592;9.600;2024-03-22T13:33:00;3.78;;;2.97;;
20369;SDS011;10344;47.592;9.600;2024-03-22T13:35:26;2.95;;;2.55;;
20369;SDS011;10344;47.592;9.600;2024-03-22T13:37:51;3.20;;;2.90;;
20369;SDS011;10344;47.592;9.600;2024-03-22T13:40:17;3.63;;;2.80;;
20369;SDS011;10344;47.592;9.600;2024-03-22T13:42:43;2.63;;;2.40;;
20369;SDS011;10344;47.592;9.600;2024-03-22T13:45:08;4.10;;;2.67;;
20369;SDS011;10344;47.592;9.600;2024-03-22T13:47:34;3.28;;;2.42;;
20369;SDS011;10344;47.592;9.600;2024-03-22T13:50:02;3.60;;;2.40;;
20369;SDS011;10344;47.592;9.600;2024-03-22T13:52:29;3.47;;;2.87;;
20369;SDS011;10344;47.592;9.600;2024-03-22T13:54:57;3.90;;;2.60;;
20369;SDS011;10344;47.592;9.600;2024-03-22T13:57:26;3.40;;;2.67;;
20369;SDS011;10344;47.592;9.600;2024-03-22T13:59:53;3.70;;;2.38;;
20369;SDS011;10344;47.592;9.600;2024-03-22T14:02:19;4.25;;;2.70;;
20369;SDS011;10344;47.592;9.600;2024-03-22T14:04:45;2.60;;;1.90;;
20369;SDS011;10344;47.592;9.600;2024-03-22T14:07:11;3.00;;;2.10;;
20369;SDS011;10344;47.592;9.600;2024-03-22T14:09:39;2.95;;;2.00;;
20369;SDS011;10344;47.592;9.600;2024-03-22T14:12:06;3.60;;;1.95;;
20369;SDS011;10344;47.592;9.600;2024-03-22T14:14:32;2.55;;;1.95;;
20369;SDS011;10344;47.592;9.600;2024-03-22T14:16:57;3.60;;;2.13;;
20369;SDS011;10344;47.592;9.600;2024-03-22T14:19:24;2.25;;;1.90;;
20369;SDS011;10344;47.592;9.600;2024-03-22T14:21:50;2.22;;;1.77;;
20369;SDS011;10344;47.592;9.600;2024-03-22T14:24:15;3.03;;;2.17;;
20369;SDS011;10344;47.592;9.600;2024-03-22T14:26:43;2.22;;;1.52;;
20369;SDS011;10344;47.592;9.600;2024-03-22T14:29:11;2.33;;;1.60;;
20369;SDS011;10344;47.592;9.600;2024-03-22T14:31:40;2.13;;;1.30;;
20369;SDS011;10344;47.592;9.600;2024-03-22T14:34:10;2.50;;;2.00;;
20369;SDS011;10344;47.592;9.600;2024-03-22T14:36:35;2.90;;;1.88;;
20369;SDS011;10344;47.592;9.600;2024-03-22T14:39:01;2.10;;;1.75;;
20369;SDS011;10344;47.592;9.600;2024-03-22T14:41:30;2.90;;;2.00;;
20369;SDS011;10344;47.592;9.600;2024-03-22T14:43:59;3.00;;;2.00;;